createdAt,value
2022-08-12T00:02:04.643Z,97358.97
2022-08-12T00:04:52.905Z,97350.53
2022-08-12T00:07:39.962Z,97345.81
2022-08-12T00:10:26.579Z,97357.47
2022-08-12T00:13:12.887Z,97348.88
2022-08-12T00:16:01.543Z,97343.00
2022-08-12T00:18:47.060Z,97351.31
2022-08-12T00:21:33.243Z,97347.75
2022-08-12T00:24:24.753Z,97347.19
2022-08-12T00:27:10.726Z,97343.16
2022-08-12T00:29:56.323Z,97341.97
2022-08-12T00:32:56.638Z,97342.94
2022-08-12T00:35:43.122Z,97352.91
2022-08-12T00:38:30.319Z,97352.50
2022-08-12T00:41:17.560Z,97352.91
2022-08-12T00:43:45.774Z,97347.41
2022-08-12T00:46:31.480Z,97349.69
2022-08-12T00:48:59.780Z,97356.66
2022-08-12T00:51:47.960Z,97353.38
2022-08-12T00:54:16.969Z,97358.13
2022-08-12T00:56:47.869Z,97351.38
2022-08-12T00:59:16.010Z,97359.38
2022-08-12T01:02:02.369Z,97352.81
2022-08-12T01:04:52.502Z,97348.31
2022-08-12T01:07:43.679Z,97353.22
2022-08-12T01:10:33.039Z,97350.53
2022-08-12T01:13:07.359Z,97347.88
2022-08-12T01:15:48.434Z,97346.25
2022-08-12T01:18:17.699Z,97353.81
2022-08-12T01:20:51.565Z,97347.25
2022-08-12T01:23:39.277Z,97357.13
2022-08-12T01:26:11.867Z,97350.13
2022-08-12T01:28:40.387Z,97344.59
2022-08-12T01:31:09.809Z,97341.09
2022-08-12T01:33:45.371Z,97343.16
2022-08-12T01:36:14.417Z,97344.59
2022-08-12T01:38:44.706Z,97339.69
2022-08-12T01:41:16.727Z,97331.06
2022-08-12T01:43:45.795Z,97336.00
2022-08-12T01:46:23.476Z,97332.31
2022-08-12T01:49:03.047Z,97334.34
2022-08-12T01:52:20.798Z,97335.56
2022-08-12T01:54:30.347Z,97334.56
2022-08-12T01:57:11.138Z,97335.97
2022-08-12T01:59:47.557Z,97326.13
2022-08-12T02:02:17.745Z,97332.28
2022-08-12T02:05:20.887Z,97332.88
2022-08-12T02:08:15.988Z,97334.97
2022-08-12T02:11:10.670Z,97331.66
2022-08-12T02:14:08.400Z,97323.44
2022-08-12T02:17:09.922Z,97320.56
2022-08-12T02:20:11.276Z,97316.06
2022-08-12T02:22:41.651Z,97314.63
2022-08-12T02:25:11.883Z,97315.66
2022-08-12T02:27:41.633Z,97315.84
2022-08-12T02:30:12.096Z,97309.94
2022-08-12T02:32:44.474Z,97306.03
2022-08-12T02:35:15.097Z,97309.50
2022-08-12T02:37:44.792Z,97303.50
2022-08-12T02:40:14.413Z,97295.50
2022-08-12T02:42:59.671Z,97288.56
2022-08-12T02:45:34.793Z,97289.16
2022-08-12T02:48:08.232Z,97286.06
2022-08-12T02:50:41.453Z,97291.38
2022-08-12T02:53:10.522Z,97295.25
2022-08-12T02:55:38.593Z,97293.13
2022-08-12T02:58:12.565Z,97289.84
2022-08-12T03:00:43.675Z,97294.75
2022-08-12T03:03:15.433Z,97278.88
2022-08-12T03:05:49.115Z,97285.72
2022-08-12T03:08:25.736Z,97283.47
2022-08-12T03:11:11.687Z,97272.00
2022-08-12T03:13:43.042Z,97271.53
2022-08-12T03:16:11.086Z,97277.63
2022-08-12T03:18:45.705Z,97276.47
2022-08-12T03:21:17.417Z,97275.19
2022-08-12T03:24:09.358Z,97286.66
2022-08-12T03:26:38.701Z,97282.16
2022-08-12T03:29:07.669Z,97277.44
2022-08-12T03:31:35.823Z,97284.84
2022-08-12T03:34:08.398Z,97290.53
2022-08-12T03:36:37.551Z,97295.00
2022-08-12T03:39:35.330Z,97282.53
2022-08-12T03:42:17.308Z,97284.94
2022-08-12T03:45:11.952Z,97286.34
2022-08-12T03:48:01.556Z,97282.81
2022-08-12T03:50:49.193Z,97282.81
2022-08-12T03:53:40.203Z,97276.94
2022-08-12T03:56:25.915Z,97280.00
2022-08-12T03:59:13.653Z,97289.72
2022-08-12T04:01:41.941Z,97287.47
2022-08-12T04:04:10.772Z,97289.56
2022-08-12T04:06:46.042Z,97299.06
2022-08-12T04:09:14.802Z,97303.97
2022-08-12T04:12:03.551Z,97308.16
2022-08-12T04:14:32.145Z,97306.50
2022-08-12T04:17:00.222Z,97297.53
2022-08-12T04:19:28.255Z,97301.19
2022-08-12T04:22:01.734Z,97302.00
2022-08-12T04:24:31.702Z,97302.25
2022-08-12T04:26:59.675Z,97308.03
2022-08-12T04:30:17.244Z,97297.75
2022-08-12T04:32:17.003Z,97300.25
2022-08-12T04:34:45.262Z,97304.16
2022-08-12T04:37:16.761Z,97301.72
2022-08-12T04:39:45.648Z,97297.44
2022-08-12T04:42:13.756Z,97301.16
2022-08-12T04:44:42.572Z,97297.31
2022-08-12T04:47:12.892Z,97297.53
2022-08-12T04:49:41.322Z,97284.84
2022-08-12T04:52:09.412Z,97295.13
2022-08-12T04:54:39.410Z,97288.97
2022-08-12T04:57:09.806Z,97300.09
2022-08-12T04:59:48.132Z,97304.41
2022-08-12T05:02:20.950Z,97305.69
2022-08-12T05:04:51.773Z,97307.75
2022-08-12T05:07:20.167Z,97301.66
2022-08-12T05:09:59.829Z,97309.25
2022-08-12T05:12:34.487Z,97307.63
2022-08-12T05:15:03.913Z,97308.47
2022-08-12T05:17:47.912Z,97308.25
2022-08-12T05:20:16.815Z,97318.53
2022-08-12T05:22:46.075Z,97319.38
2022-08-12T05:25:18.400Z,97318.97
2022-08-12T05:27:58.566Z,97318.34
2022-08-12T05:30:27.753Z,97319.59
2022-08-12T05:33:00.087Z,97322.66
2022-08-12T05:35:28.932Z,97329.22
2022-08-12T05:38:10.772Z,97325.31
2022-08-12T05:40:40.191Z,97338.59
2022-08-12T05:43:08.245Z,97341.44
2022-08-12T05:45:39.230Z,97342.25
2022-08-12T05:48:09.632Z,97348.41
2022-08-12T05:50:37.666Z,97350.41
2022-08-12T05:53:07.159Z,97349.13
2022-08-12T05:55:36.092Z,97347.00
2022-08-12T05:58:07.952Z,97355.97
2022-08-12T06:00:37.300Z,97353.44
2022-08-12T06:03:06.987Z,97353.16
2022-08-12T06:05:52.728Z,97353.16
2022-08-12T06:08:23.753Z,97363.97
2022-08-12T06:10:52.260Z,97356.56
2022-08-12T06:13:28.274Z,97352.38
2022-08-12T06:16:10.472Z,97357.59
2022-08-12T06:18:40.212Z,97357.28
2022-08-12T06:21:08.772Z,97357.44
2022-08-12T06:23:41.963Z,97356.44
2022-08-12T06:26:13.037Z,97352.25
2022-08-12T06:28:44.076Z,97359.09
2022-08-12T06:31:25.909Z,97360.50
2022-08-12T06:34:52.766Z,97360.94
2022-08-12T06:36:43.432Z,97354.31
2022-08-12T06:39:14.239Z,97354.28
2022-08-12T06:42:05.203Z,97356.66
2022-08-12T06:44:51.123Z,97343.06
2022-08-12T06:47:19.828Z,97336.56
2022-08-12T06:49:48.755Z,97345.78
2022-08-12T06:52:17.433Z,97340.97
2022-08-12T06:54:45.980Z,97344.25
2022-08-12T06:58:06.630Z,97358.41
2022-08-12T07:00:04.303Z,97354.31
2022-08-12T07:02:36.411Z,97358.31
2022-08-12T07:05:05.563Z,97364.84
2022-08-12T07:07:33.685Z,97364.16
2022-08-12T07:10:07.794Z,97349.56
2022-08-12T07:12:37.173Z,97358.31
2022-08-12T07:15:08.111Z,97352.13
2022-08-12T07:17:38.028Z,97352.72
2022-08-12T07:20:29.872Z,97358.91
2022-08-12T07:22:57.834Z,97359.72
2022-08-12T07:25:37.902Z,97348.91
2022-08-12T07:28:16.249Z,97346.22
2022-08-12T07:30:48.636Z,97339.13
2022-08-12T07:33:18.058Z,97342.88
2022-08-12T07:35:48.566Z,97335.72
2022-08-12T07:38:29.051Z,97335.22
2022-08-12T07:41:01.853Z,97351.50
2022-08-12T07:43:31.172Z,97344.91
2022-08-12T07:46:02.226Z,97346.81
2022-08-12T07:48:36.945Z,97346.66
2022-08-12T07:51:05.654Z,97338.97
2022-08-12T07:53:49.121Z,97341.06
2022-08-12T07:56:23.313Z,97339.56
2022-08-12T07:58:52.131Z,97340.72
2022-08-12T08:01:23.040Z,97334.34
2022-08-12T08:04:17.942Z,97339.34
2022-08-12T08:06:47.729Z,97328.09
2022-08-12T08:09:19.383Z,97320.59
2022-08-12T08:12:05.004Z,97334.28
2022-08-12T08:14:33.161Z,97336.75
2022-08-12T08:20:01.815Z,97336.72
2022-08-12T08:22:41.037Z,97338.84
2022-08-12T08:25:20.176Z,97331.91
2022-08-12T08:28:00.664Z,97351.91
2022-08-12T08:30:29.872Z,97354.50
2022-08-12T08:33:00.025Z,97348.97
2022-08-12T08:35:47.147Z,97344.38
2022-08-12T08:38:30.082Z,97344.78
2022-08-12T08:42:17.445Z,97349.44
2022-08-12T08:44:08.049Z,97347.13
2022-08-12T08:46:38.177Z,97353.50
2022-08-12T08:49:08.716Z,97360.25
2022-08-12T08:51:37.531Z,97357.38
2022-08-12T08:54:07.003Z,97358.63
2022-08-12T08:56:36.442Z,97357.09
2022-08-12T08:59:04.843Z,97355.44
2022-08-12T09:01:37.341Z,97357.47
2022-08-12T09:05:11.314Z,97354.88
2022-08-12T09:06:59.771Z,97342.25
2022-08-12T09:12:36.155Z,97348.06
2022-08-12T09:15:16.884Z,97340.19
2022-08-12T09:17:53.452Z,97338.31
2022-08-12T09:20:27.505Z,97341.47
2022-08-12T09:22:58.971Z,97327.72
2022-08-12T09:25:33.501Z,97341.47
2022-08-12T09:28:04.896Z,97331.53
2022-08-12T09:30:47.673Z,97335.84
2022-08-12T09:33:19.038Z,97345.31
2022-08-12T09:36:05.994Z,97339.47
2022-08-12T09:38:35.645Z,97332.09
2022-08-12T09:42:34.137Z,97333.72
2022-08-12T09:44:37.851Z,97334.66
2022-08-12T09:47:00.327Z,97339.75
2022-08-12T09:49:37.166Z,97323.22
2022-08-12T09:52:15.838Z,97328.88
2022-08-12T09:54:44.293Z,97324.81
2022-08-12T09:58:46.740Z,97314.88
2022-08-12T10:00:17.666Z,97328.56
2022-08-12T10:03:00.994Z,97314.13
2022-08-12T10:06:19.990Z,97317.94
2022-08-12T10:08:30.589Z,97311.91
2022-08-12T10:11:18.350Z,97310.69
2022-08-12T10:13:50.308Z,97303.44
2022-08-12T10:16:22.720Z,97305.16
2022-08-12T10:18:53.825Z,97291.38
2022-08-12T10:21:24.281Z,97298.13
2022-08-12T10:24:08.537Z,97291.69
2022-08-12T10:26:55.558Z,97282.16
2022-08-12T10:30:37.439Z,97281.91
2022-08-12T10:32:44.719Z,97293.81
2022-08-12T10:35:16.826Z,97281.16
2022-08-12T10:38:33.382Z,97287.47
2022-08-12T10:40:56.553Z,97295.69
2022-08-12T10:43:55.508Z,97295.16
2022-08-12T10:46:30.481Z,97284.81
2022-08-12T10:49:06.930Z,97273.97
2022-08-12T10:52:03.752Z,97261.28
2022-08-12T10:54:38.117Z,97269.38
2022-08-12T10:57:07.846Z,97266.97
2022-08-12T11:00:29.597Z,97241.31
2022-08-12T11:04:25.126Z,97239.97
2022-08-12T11:07:10.201Z,97244.03
2022-08-12T11:08:36.143Z,97246.25
2022-08-12T11:11:00.336Z,97244.06
2022-08-12T11:13:46.271Z,97252.44
2022-08-12T11:16:23.104Z,97246.53
2022-08-12T11:18:54.975Z,97253.03
2022-08-12T11:21:56.817Z,97241.66
2022-08-12T11:24:30.753Z,97232.72
2022-08-12T11:27:01.970Z,97231.34
2022-08-12T11:30:05.975Z,97240.03
2022-08-12T11:32:26.437Z,97229.13
2022-08-12T11:34:55.298Z,97228.59
2022-08-12T11:37:27.317Z,97221.03
2022-08-12T11:42:35.373Z,97214.84
2022-08-12T11:45:05.806Z,97202.38
2022-08-12T11:47:40.390Z,97211.13
2022-08-12T11:50:11.700Z,97194.97
2022-08-12T11:53:02.313Z,97199.56
2022-08-12T11:55:30.790Z,97212.03
2022-08-12T11:58:08.648Z,97205.78
2022-08-12T12:03:41.568Z,97209.09
2022-08-12T12:06:16.336Z,97218.25
2022-08-12T12:08:51.024Z,97207.84
2022-08-12T12:11:20.891Z,97209.69
2022-08-12T12:14:07.929Z,97209.03
2022-08-12T12:16:39.973Z,97208.94
2022-08-12T12:19:10.602Z,97197.13
2022-08-12T12:21:47.272Z,97197.47
2022-08-12T12:24:21.585Z,97198.63
2022-08-12T12:27:00.078Z,97199.94
2022-08-12T12:30:19.772Z,97193.97
2022-08-12T12:32:29.048Z,97192.38
2022-08-12T12:35:17.915Z,97183.41
2022-08-12T12:38:05.432Z,97195.13
2022-08-12T12:40:43.891Z,97163.88
2022-08-12T12:43:13.934Z,97164.66
2022-08-12T12:45:44.534Z,97162.31
2022-08-12T12:48:24.011Z,97160.91
2022-08-12T12:51:09.237Z,97152.31
2022-08-12T12:54:06.541Z,97165.44
2022-08-12T12:56:34.087Z,97163.38
2022-08-12T12:59:06.315Z,97165.56
2022-08-12T13:01:41.969Z,97167.91
2022-08-12T13:04:15.550Z,97169.25
2022-08-12T13:06:47.085Z,97166.81
2022-08-12T13:09:15.703Z,97163.81
2022-08-12T13:11:53.225Z,97154.53
2022-08-12T13:14:29.532Z,97161.91
2022-08-12T13:17:02.896Z,97159.44
2022-08-12T13:19:46.897Z,97160.44
2022-08-12T13:22:18.838Z,97160.81
2022-08-12T13:24:54.759Z,97161.38
2022-08-12T13:27:35.194Z,97157.53
2022-08-12T13:30:06.839Z,97157.91
2022-08-12T13:32:38.754Z,97159.00
2022-08-12T13:35:20.431Z,97149.13
2022-08-12T13:37:59.469Z,97150.25
2022-08-12T13:40:32.323Z,97149.94
2022-08-12T13:43:02.099Z,97142.34
2022-08-12T13:45:31.600Z,97142.28
2022-08-12T13:48:02.151Z,97143.50
2022-08-12T13:50:36.598Z,97139.50
2022-08-12T13:53:24.642Z,97145.25
2022-08-12T13:56:01.970Z,97154.19
2022-08-12T13:58:32.992Z,97150.00
2022-08-12T14:01:05.754Z,97153.06
2022-08-12T14:03:50.413Z,97157.31
2022-08-12T14:06:25.926Z,97149.47
2022-08-12T14:08:58.232Z,97147.84
2022-08-12T14:11:28.053Z,97158.59
2022-08-12T14:14:06.077Z,97156.72
2022-08-12T14:16:48.758Z,97142.72
2022-08-12T14:19:24.143Z,97143.00
2022-08-12T14:21:59.165Z,97138.66
2022-08-12T14:24:41.045Z,97142.19
2022-08-12T14:27:11.210Z,97136.22
2022-08-12T14:30:03.947Z,97139.97
2022-08-12T14:32:35.660Z,97141.16
2022-08-12T14:35:09.012Z,97142.81
2022-08-12T14:37:57.363Z,97145.34
2022-08-12T14:40:29.171Z,97136.34
2022-08-12T14:42:58.245Z,97130.28
2022-08-12T14:45:44.411Z,97130.94
2022-08-12T14:48:16.665Z,97128.50
2022-08-12T14:51:09.646Z,97134.47
2022-08-12T14:59:57.357Z,97132.56
2022-08-12T15:02:21.268Z,97119.88
2022-08-12T15:04:59.135Z,97121.16
2022-08-12T15:07:34.333Z,97126.94
2022-08-12T15:10:31.171Z,97129.72
2022-08-12T15:13:00.204Z,97126.31
2022-08-12T15:15:31.454Z,97124.78
2022-08-12T15:18:02.644Z,97136.09
2022-08-12T15:20:37.265Z,97139.88
2022-08-12T15:23:17.906Z,97139.88
2022-08-12T15:26:02.473Z,97142.94
2022-08-12T15:28:33.075Z,97137.25
2022-08-12T15:31:02.423Z,97132.25
2022-08-12T15:33:37.845Z,97136.34
2022-08-12T15:36:19.226Z,97130.25
2022-08-12T15:38:53.233Z,97140.66
2022-08-12T15:41:25.633Z,97140.44
2022-08-12T15:44:36.975Z,97140.16
2022-08-12T15:46:44.990Z,97136.13
2022-08-12T15:49:16.765Z,97137.47
2022-08-12T15:51:58.479Z,97135.00
2022-08-12T15:54:36.232Z,97133.94
2022-08-12T15:57:16.801Z,97137.47
2022-08-12T15:59:59.909Z,97136.09
2022-08-12T16:02:50.223Z,97128.78
2022-08-12T16:06:15.507Z,97125.25
2022-08-12T16:08:15.251Z,97139.84
2022-08-12T16:10:45.569Z,97134.19
2022-08-12T16:13:25.092Z,97142.25
2022-08-12T16:16:04.041Z,97137.28
2022-08-12T16:18:40.559Z,97137.91
2022-08-12T16:21:52.719Z,97145.81
2022-08-12T16:24:02.102Z,97141.22
2022-08-12T16:26:36.068Z,97149.19
2022-08-12T16:29:09.286Z,97150.41
2022-08-12T16:31:45.057Z,97146.34
2022-08-12T16:34:25.859Z,97146.41
2022-08-12T16:37:07.114Z,97149.63
2022-08-12T16:39:59.859Z,97147.94
2022-08-12T16:42:28.256Z,97141.41
2022-08-12T16:44:59.570Z,97148.66
2022-08-12T16:47:28.189Z,97152.13
2022-08-12T16:49:57.958Z,97145.06
2022-08-12T16:52:26.066Z,97138.56
2022-08-12T16:54:55.312Z,97136.13
2022-08-12T16:57:35.101Z,97135.84
2022-08-12T17:00:17.143Z,97136.59
2022-08-12T17:02:50.609Z,97135.53
2022-08-12T17:05:31.389Z,97145.50
2022-08-12T17:08:00.470Z,97141.28
2022-08-12T17:10:36.209Z,97141.22
2022-08-12T17:13:10.048Z,97141.44
2022-08-12T17:15:57.057Z,97143.53
2022-08-12T17:18:43.851Z,97144.53
2022-08-12T17:21:20.085Z,97149.66
2022-08-12T17:24:10.659Z,97156.34
2022-08-12T17:26:45.432Z,97152.53
2022-08-12T17:29:24.256Z,97147.03
2022-08-12T17:32:10.271Z,97156.66
2022-08-12T17:34:56.270Z,97151.38
2022-08-12T17:37:31.733Z,97153.28
2022-08-12T17:40:10.811Z,97161.13
2022-08-12T17:42:47.618Z,97161.22
2022-08-12T17:45:19.761Z,97163.31
2022-08-12T17:48:02.253Z,97166.94
2022-08-12T17:50:36.027Z,97166.81
2022-08-12T17:53:04.741Z,97173.66
2022-08-12T17:55:44.113Z,97174.84
2022-08-12T17:58:16.639Z,97175.44
2022-08-12T18:00:46.113Z,97173.53
2022-08-12T18:04:07.006Z,97179.63
2022-08-12T18:06:13.850Z,97176.56
2022-08-12T18:08:54.280Z,97167.00
2022-08-12T18:12:03.892Z,97171.50
2022-08-12T18:14:30.206Z,97171.06
2022-08-12T18:17:00.674Z,97168.47
2022-08-12T18:20:04.314Z,97173.22
2022-08-12T18:22:22.105Z,97171.81
2022-08-12T18:25:02.594Z,97179.91
2022-08-12T18:27:43.728Z,97174.94
2022-08-12T18:30:20.982Z,97182.41
2022-08-12T18:33:03.645Z,97185.00
2022-08-12T18:35:52.934Z,97184.66
2022-08-12T18:38:22.633Z,97184.16
2022-08-12T18:41:10.952Z,97192.97
2022-08-12T18:43:58.491Z,97190.19
2022-08-12T18:46:33.267Z,97182.84
2022-08-12T18:49:17.981Z,97188.47
2022-08-12T18:51:55.431Z,97198.34
2022-08-12T18:54:33.274Z,97191.72
2022-08-12T18:57:03.907Z,97191.72
2022-08-12T19:00:01.681Z,97196.75
2022-08-12T19:02:23.208Z,97189.16
2022-08-12T19:04:53.488Z,97194.84
2022-08-12T19:07:29.757Z,97201.69
2022-08-12T19:10:14.977Z,97200.28
2022-08-12T19:13:01.148Z,97194.53
2022-08-12T19:15:29.736Z,97192.03
2022-08-12T19:18:02.350Z,97190.53
2022-08-12T19:20:32.002Z,97183.13
2022-08-12T19:23:08.189Z,97197.09
2022-08-12T19:26:02.217Z,97201.72
2022-08-12T19:28:34.755Z,97193.31
2022-08-12T19:31:56.301Z,97182.72
2022-08-12T19:34:47.113Z,97197.38
2022-08-12T19:37:17.338Z,97195.88
2022-08-12T19:40:09.896Z,97199.00
2022-08-12T19:42:38.913Z,97193.78
2022-08-12T19:45:12.709Z,97202.41
2022-08-12T19:47:44.795Z,97198.84
2022-08-12T19:50:19.735Z,97194.69
2022-08-12T19:52:51.410Z,97199.22
2022-08-12T19:55:25.365Z,97201.09
2022-08-12T19:58:02.455Z,97195.50
2022-08-12T20:00:34.590Z,97194.69
2022-08-12T20:03:06.442Z,97199.22
2022-08-12T20:06:05.995Z,97194.75
2022-08-12T20:08:34.404Z,97188.28
2022-08-12T20:12:09.730Z,97194.59
2022-08-12T20:14:00.783Z,97196.75
2022-08-12T20:19:52.788Z,97193.88
2022-08-12T20:22:23.853Z,97197.56
2022-08-12T20:24:55.230Z,97202.69
2022-08-12T20:28:02.962Z,97200.41
2022-08-12T20:30:37.309Z,97197.94
2022-08-12T20:33:18.259Z,97204.44
2022-08-12T20:36:06.396Z,97194.25
2022-08-12T20:38:39.905Z,97192.50
2022-08-12T20:41:16.654Z,97191.81
2022-08-12T20:43:50.664Z,97191.03
2022-08-12T20:46:20.986Z,97193.97
2022-08-12T20:48:55.323Z,97189.41
2022-08-12T20:51:27.621Z,97186.22
2022-08-12T20:53:58.744Z,97186.44
2022-08-12T20:56:33.471Z,97191.56
2022-08-12T20:59:05.500Z,97183.38
2022-08-12T21:01:46.492Z,97179.88
2022-08-12T21:04:35.397Z,97183.75
2022-08-12T21:07:09.344Z,97188.34
2022-08-12T21:09:42.443Z,97178.72
2022-08-12T21:12:31.055Z,97191.44
2022-08-12T21:15:17.173Z,97185.44
2022-08-12T21:18:09.079Z,97189.03
2022-08-12T21:20:44.664Z,97184.78
2022-08-12T21:23:13.916Z,97190.13
2022-08-12T21:25:45.304Z,97189.31
2022-08-12T21:28:14.627Z,97190.97
2022-08-12T21:31:11.694Z,97185.22
2022-08-12T21:34:06.182Z,97185.31
2022-08-12T21:36:22.525Z,97185.69
2022-08-12T21:38:53.985Z,97187.56
2022-08-12T21:41:23.805Z,97188.72
2022-08-12T21:43:52.634Z,97179.06
2022-08-12T21:46:34.912Z,97182.81
2022-08-12T21:49:05.446Z,97186.50
2022-08-12T21:51:35.984Z,97187.00
2022-08-12T21:54:21.831Z,97188.19
2022-08-12T21:56:53.521Z,97194.22
2022-08-12T21:59:22.975Z,97191.91
2022-08-12T22:01:53.932Z,97171.59
2022-08-12T22:04:49.953Z,97185.44
2022-08-12T22:07:19.588Z,97188.72
2022-08-12T22:09:54.238Z,97177.78
2022-08-12T22:12:37.533Z,97173.13
2022-08-12T22:15:07.642Z,97182.03
2022-08-12T22:17:49.820Z,97180.56
2022-08-12T22:20:23.885Z,97181.44
2022-08-12T22:23:00.409Z,97189.50
2022-08-12T22:25:30.465Z,97187.44
2022-08-12T22:28:17.865Z,97193.75
2022-08-12T22:31:10.837Z,97198.69
2022-08-12T22:33:54.005Z,97194.41
2022-08-12T22:36:29.189Z,97188.91
2022-08-12T22:38:59.048Z,97190.94
2022-08-12T22:41:45.786Z,97197.13
2022-08-12T22:44:31.127Z,97188.94
2022-08-12T22:47:45.700Z,97193.28
2022-08-12T22:50:26.838Z,97198.81
2022-08-12T22:53:15.000Z,97194.34
2022-08-12T22:56:00.700Z,97184.91
2022-08-12T22:58:33.868Z,97185.50
2022-08-12T23:01:03.298Z,97180.38
2022-08-12T23:03:49.336Z,97173.59
2022-08-12T23:06:21.466Z,97184.88
2022-08-12T23:08:49.955Z,97185.72
2022-08-12T23:11:23.771Z,97177.09
2022-08-12T23:13:57.060Z,97176.69
2022-08-12T23:16:31.537Z,97178.50
2022-08-12T23:19:10.666Z,97178.75
2022-08-12T23:22:05.356Z,97170.50
2022-08-12T23:24:41.219Z,97167.44
2022-08-12T23:27:50.793Z,97167.44
2022-08-12T23:30:24.709Z,97167.25
2022-08-12T23:32:54.604Z,97168.44
2022-08-12T23:35:46.120Z,97174.44
2022-08-12T23:38:30.868Z,97169.94
2022-08-12T23:41:01.207Z,97175.47
2022-08-12T23:43:39.394Z,97168.91
2022-08-12T23:46:10.388Z,97161.72
2022-08-12T23:48:39.056Z,97164.63
2022-08-12T23:51:21.522Z,97160.50
2022-08-12T23:53:55.338Z,97151.09
2022-08-12T23:56:24.295Z,97158.88
2022-08-12T23:58:57.529Z,97151.28
